Latest Weather Observations for Cessnock Airport

IDN60801

Issued at 2:32 pm EST Wednesday 29 July 2015 (issued every 30 minutes, with the page automatically refreshed every 10 minutes)

About weather observations | Map of weather stations | Latest weather observations for NSW | Other Formats
Station Details ID: 061260 Name: CESSNOCK AIRPORT AWS Lat: -32.79 Lon: 151.34 Height: 61.0 m
Data from the previous 72 hours. | See also: Recent months at Cessnock Airport
Date/Time
EST
Temp
°C
App
Temp
°C
Dew
Point
Rel
Hum
%
Delta-T
°C
Wind Press
QNH
hPa
Press
MSL
hPa
Rain
since 9 am
mm
Dir
 
Spd
km/h
Gust
km/h
Spd
kts
Gust
kts
29/02:30pm 17.2 15.5 5.8 47 5.5 SW 4 7 2 4 1029.9 1030.0 0.0
29/02:00pm 17.4 15.7 6.0 47 5.5 SSE 4 9 2 5 1030.0 1030.1 0.0
29/01:30pm 17.2 15.5 5.8 47 5.6 NW 4 7 2 4 1030.5 1030.6 0.0
29/01:00pm 16.5 13.9 6.1 50 5.0 N 9 13 5 7 1031.1 1031.2 0.0
29/12:30pm 16.4 14.2 6.0 50 5.1 NW 7 9 4 5 1031.7 1031.8 0.0
29/12:00pm 16.5 14.6 6.9 53 4.7 NE 6 9 3 5 1032.4 1032.5 0.0
29/11:30am 15.1 13.1 6.4 56 4.2 NW 6 11 3 6 1033.1 1033.2 0.0
29/11:00am 14.0 11.9 6.6 61 3.5 NNW 7 11 4 6 1033.6 1033.7 0.0
29/10:30am 12.6 9.7 6.6 67 2.9 NNW 11 13 6 7 1034.1 1034.2 0.0
29/10:00am 11.3 9.1 6.4 72 2.3 NNW 7 11 4 6 1034.5 1034.6 0.0
29/09:30am 8.8 6.1 5.5 80 1.5 NW 9 15 5 8 1034.7 1034.8 0.0
29/09:00am 6.8 3.8 3.9 82 1.2 NNW 9 15 5 8 1034.8 1034.9 0.0
29/08:30am 5.2 2.1 3.5 89 0.7 N 9 13 5 7 1034.5 1034.6 0.0
29/08:00am 3.9 1.7 3.5 97 0.2 N 4 9 2 5 1034.5 1034.6 0.0
29/07:30am 3.0 0.7 2.9 99 0.0 NNW 4 7 2 4 1034.3 1034.4 0.0
29/07:00am 0.9 -1.8 0.5 97 0.1 N 4 7 2 4 1033.8 1033.9 0.0
29/06:30am 1.9 -1.0 1.5 97 0.2 N 6 7 3 4 1033.6 1033.7 0.0
29/06:00am 2.0 -0.9 1.7 98 0.1 NNE 6 9 3 5 1033.1 1033.2 0.0
29/05:30am 2.1 0.0 1.7 97 0.2 NNE 2 7 1 4 1032.9 1033.0 0.0
29/05:00am 1.5 -0.7 1.1 97 0.1 N 2 6 1 3 1032.9 1033.0 0.0
29/04:30am 2.1 0.4 1.7 97 0.2 CALM 0 0 0 0 1032.6 1032.7 0.0
29/04:00am 2.3 -0.1 1.9 97 0.2 NNE 4 6 2 3 1032.6 1032.7 0.0
29/03:30am 2.5 0.1 2.4 99 0.0 NNE 4 7 2 4 1032.4 1032.5 0.0
29/03:00am 1.1 -0.8 0.8 98 0.1 CALM 0 0 0 0 1032.6 1032.7 0.0
29/02:30am 0.7 -1.2 0.4 98 0.1 CALM 0 6 0 3 1032.5 1032.6 0.0
29/02:00am 0.4 -1.6 0.1 98 0.1 CALM 0 0 0 0 1032.4 1032.5 0.0
29/01:30am 0.5 -1.5 0.2 98 0.1 CALM 0 0 0 0 1032.6 1032.7 0.0
29/01:00am 1.1 -0.8 0.8 98 0.1 CALM 0 0 0 0 1032.5 1032.6 0.0
29/12:30am 0.9 -1.0 0.5 97 0.1 CALM 0 0 0 0 1032.5 1032.6 0.0
29/12:00am 1.7 -0.1 1.4 98 0.1 CALM 0 0 0 0 1032.5 1032.6 0.0
 
Date/Time
EST
Temp
°C
App
Temp
°C
Dew
Point
Rel
Hum
%
Delta-T
°C
Wind Press
QNH
hPa
Press
MSL
hPa
Rain
since 9 am
mm
Dir
 
Spd
km/h
Gust
km/h
Spd
kts
Gust
kts
28/11:30pm 1.4 -0.8 0.8 96 0.2 WSW 2 6 1 3 1032.7 1032.8 0.0
28/11:00pm 2.1 0.0 1.7 97 0.2 SW 2 9 1 5 1032.7 1032.8 0.0
28/10:30pm 2.7 1.0 2.1 96 0.2 CALM 0 0 0 0 1032.6 1032.7 0.0
28/10:00pm 2.5 -0.6 1.5 93 0.4 SW 7 9 4 5 1032.6 1032.7 0.0
28/09:30pm 3.1 0.7 2.2 94 0.4 WSW 4 9 2 5 1032.7 1032.8 0.0
28/09:00pm 3.4 1.0 2.4 93 0.4 SW 4 9 2 5 1032.7 1032.8 0.0
28/08:30pm 3.8 0.5 2.5 91 0.5 SW 9 9 5 5 1032.7 1032.8 0.0
28/08:00pm 4.1 1.1 2.1 87 0.8 SW 7 11 4 6 1032.5 1032.6 0.0
28/07:30pm 4.7 1.5 2.9 88 0.7 W 9 11 5 6 1032.3 1032.4 0.0
28/07:00pm 4.9 1.6 2.6 85 0.9 WSW 9 11 5 6 1032.1 1032.2 0.0
28/06:30pm 6.9 3.5 3.9 81 1.3 WSW 11 15 6 8 1031.7 1031.8 0.0
28/06:00pm 8.4 5.8 4.0 74 1.9 WSW 7 11 4 6 1031.4 1031.5 0.0
28/05:30pm 9.8 6.9 4.4 69 2.4 SW 9 13 5 7 1030.9 1031.0 0.0
28/05:00pm 12.6 10.2 4.3 57 3.7 WSW 6 7 3 4 1030.6 1030.7 0.0
28/04:30pm 14.7 12.0 2.6 44 5.4 S 6 9 3 5 1030.3 1030.4 0.0
28/04:00pm 15.4 12.4 2.2 41 5.8 SSW 7 11 4 6 1030.1 1030.2 0.0
28/03:30pm 15.9 12.6 2.3 40 6.1 SW 9 13 5 7 1030.1 1030.2 0.0
28/03:00pm 16.0 12.3 2.1 39 6.2 WSW 11 17 6 9 1030.2 1030.3 0.0
28/02:30pm 16.2 12.7 3.6 43 5.8 SW 11 19 6 10 1030.1 1030.2 0.0
28/02:00pm 16.2 12.3 3.3 42 5.9 WSW 13 20 7 11 1030.1 1030.2 0.0
28/01:30pm 15.8 12.5 2.6 41 6.0 NNW 9 19 5 10 1030.3 1030.4 0.0
28/01:00pm 15.5 12.4 3.6 45 5.4 NW 9 19 5 10 1030.8 1030.9 0.0
28/12:30pm 14.8 10.9 3.3 46 5.2 N 13 19 7 10 1031.2 1031.3 0.0
28/12:00pm 14.1 9.4 3.3 48 4.8 N 17 20 9 11 1031.7 1031.8 0.0
28/11:30am 13.0 9.3 2.3 48 4.7 NW 11 17 6 9 1032.3 1032.4 0.0
28/11:00am 11.6 7.1 2.1 52 4.0 NW 15 22 8 12 1032.9 1033.0 0.0
28/10:30am 10.6 5.7 1.9 55 3.7 NW 17 20 9 11 1033.2 1033.3 0.0
28/10:00am 9.8 5.0 2.6 61 3.0 NNW 17 26 9 14 1033.2 1033.3 0.0
28/09:30am 8.4 4.3 2.2 65 2.6 NNW 13 17 7 9 1033.3 1033.4 0.0
28/09:00am 7.3 2.7 1.6 67 2.3 NNW 15 24 8 13 1033.2 1033.3 0.0
28/08:30am 6.4 1.4 1.1 69 2.1 NW 17 24 9 13 1032.9 1033.0 0.0
28/08:00am 5.8 0.8 1.3 73 1.8 NNW 17 24 9 13 1032.6 1032.7 0.0
28/07:30am 5.0 -0.1 0.9 75 1.6 NW 17 26 9 14 1032.3 1032.4 0.0
28/07:00am 4.6 -0.1 0.7 76 1.5 NW 15 24 8 13 1032.1 1032.2 0.0
28/06:30am 4.8 -0.3 0.8 75 1.6 NW 17 28 9 15 1031.7 1031.8 0.0
28/06:00am 4.9 -0.6 0.9 75 1.5 NW 19 26 10 14 1031.3 1031.4 0.0
28/05:30am 4.8 0.5 0.8 75 1.6 NNW 13 20 7 11 1030.8 1030.9 0.0
28/05:00am 5.0 -0.1 0.8 74 1.6 NW 17 26 9 14 1030.5 1030.6 0.0
28/04:30am 5.1 -0.4 0.9 74 1.6 NW 19 30 10 16 1030.3 1030.4 0.0
28/04:00am 5.2 0.1 0.8 73 1.7 NW 17 24 9 13 1030.1 1030.2 0.0
28/03:30am 5.0 0.7 0.9 75 1.6 NNW 13 26 7 14 1029.9 1030.0 0.0
28/03:00am 4.9 0.2 0.7 74 1.6 NW 15 22 8 12 1029.8 1029.9 0.0
28/02:30am 5.1 0.8 0.7 73 1.7 NW 13 22 7 12 1029.8 1029.9 0.0
28/02:00am 5.3 0.2 0.7 72 1.8 NW 17 24 9 13 1029.9 1030.0 0.0
28/01:30am 5.6 0.9 0.6 70 1.9 NW 15 19 8 10 1029.8 1029.9 0.0
28/01:00am 6.3 1.6 0.6 67 2.2 NW 15 22 8 12 1029.6 1029.7 0.0
28/12:30am 6.1 1.7 0.4 67 2.2 NNW 13 20 7 11 1029.6 1029.7 0.0
28/12:00am 6.3 1.9 0.6 67 2.2 NNW 13 17 7 9 1029.4 1029.5 0.0
 
Date/Time
EST
Temp
°C
App
Temp
°C
Dew
Point
Rel
Hum
%
Delta-T
°C
Wind Press
QNH
hPa
Press
MSL
hPa
Rain
since 9 am
mm
Dir
 
Spd
km/h
Gust
km/h
Spd
kts
Gust
kts
27/11:30pm 6.2 2.2 0.5 67 2.2 N 11 13 6 7 1029.2 1029.3 0.0
27/11:00pm 8.5 4.5 0.2 56 3.3 W 11 19 6 10 1029.1 1029.2 0.0
27/10:30pm 8.2 4.9 0.4 58 3.1 WNW 7 11 4 6 1029.2 1029.3 0.0
27/10:00pm 8.3 4.7 0.5 58 3.1 WNW 9 17 5 9 1028.9 1029.0 0.0
27/09:30pm 8.4 4.0 0.6 58 3.1 WSW 13 24 7 13 1028.7 1028.8 0.0
27/09:00pm 8.5 4.9 0.5 57 3.2 WSW 9 15 5 8 1028.5 1028.6 0.0
27/08:30pm 8.8 6.1 0.3 55 3.4 NE 4 9 2 5 1028.1 1028.2 0.0
27/08:00pm 9.1 6.0 0.0 53 3.6 N 6 11 3 6 1028.0 1028.1 0.0
27/07:30pm 10.2 5.4 0.3 50 4.0 W 15 22 8 12 1027.5 1027.6 0.0
27/07:00pm 9.5 5.2 0.9 55 3.5 W 13 20 7 11 1027.2 1027.3 0.0
27/06:30pm 7.5 3.7 -0.5 57 3.1 W 9 11 5 6 1026.9 1027.0 0.0
27/06:00pm 11.0 6.5 -0.5 45 4.6 W 13 19 7 10 1026.6 1026.7 0.0
27/05:30pm 11.5 6.6 -0.6 43 4.9 WNW 15 20 8 11 1025.9 1026.0 0.0
27/05:00pm 12.4 7.1 -0.8 40 5.3 W 17 26 9 14 1025.6 1025.7 0.0
27/04:30pm 13.5 8.1 -1.3 36 6.0 W 17 26 9 14 1025.3 1025.3 0.0
27/04:00pm 14.3 9.3 -1.3 34 6.3 W 15 20 8 11 1024.9 1024.9 0.0
27/03:30pm 14.5 9.1 -1.6 33 6.6 W 17 26 9 14 1024.6 1024.6 0.0
27/03:00pm 14.6 8.2 -1.9 32 6.6 WSW 22 35 12 19 1024.2 1024.2 0.0
27/02:30pm 14.7 7.1 -2.2 31 6.8 WSW 28 41 15 22 1024.0 1024.0 0.0
27/02:00pm 14.7 8.3 -1.8 32 6.7 WSW 22 37 12 20 1024.0 1024.0 0.0
27/01:30pm 14.6 7.8 -1.5 33 6.6 WNW 24 35 13 19 1023.9 1023.9 0.0
27/01:00pm 14.5 8.1 -1.6 33 6.5 WNW 22 33 12 18 1024.0 1024.0 0.0
27/12:30pm 14.3 8.7 -0.2 37 6.1 WNW 19 28 10 15 1024.5 1024.5 0.0
27/12:00pm 13.7 8.9 2.6 47 4.9 NW 17 32 9 17 1025.0 1025.0 0.0
27/11:30am 12.6 7.8 2.5 50 4.4 NW 17 28 9 15 1025.6 1025.7 0.0
27/11:00am 11.9 7.3 1.8 50 4.3 NW 15 24 8 13 1026.0 1026.1 0.0
27/10:30am 11.1 5.9 2.4 55 3.7 NW 19 30 10 16 1026.4 1026.5 0.0
27/10:00am 10.7 5.4 2.0 55 3.7 NW 19 28 10 15 1026.2 1026.3 0.0
27/09:30am 9.9 4.7 2.3 59 3.2 NW 19 32 10 17 1026.3 1026.4 0.0
27/09:00am 9.5 4.4 2.8 63 2.8 NW 19 30 10 16 1026.3 1026.4 0.0
27/08:30am 8.5 3.7 2.5 66 2.5 NW 17 28 9 15 1026.0 1026.1 0.0
27/08:00am 7.4 2.6 2.5 71 2.0 NNW 17 24 9 13 1025.6 1025.7 0.0
27/07:30am 6.6 2.2 2.5 75 1.7 NNW 15 24 8 13 1025.0 1025.0 0.0
27/07:00am 6.3 2.6 2.2 75 1.7 NNW 11 17 6 9 1024.8 1024.8 0.0
27/06:30am 6.7 2.2 2.0 72 1.9 NW 15 20 8 11 1024.3 1024.3 0.0
27/06:00am 7.0 2.5 2.1 71 2.0 NW 15 20 8 11 1024.0 1024.0 0.0
27/05:30am 7.4 2.5 2.1 69 2.2 WNW 17 24 9 13 1023.6 1023.6 0.0
27/05:00am 7.6 2.1 1.9 67 2.3 NW 20 28 11 15 1023.0 1023.0 0.0
27/04:30am 7.2 2.3 1.9 69 2.2 NW 17 24 9 13 1022.7 1022.7 0.0
27/04:00am 7.6 3.7 1.0 63 2.6 NW 11 17 6 9 1022.7 1022.7 0.0
27/03:30am 7.4 3.4 0.4 61 2.8 WSW 11 15 6 8 1022.8 1022.8 0.0
27/03:00am 6.6 3.0 0.5 65 2.4 W 9 13 5 7 1022.4 1022.5 0.0
27/02:30am 9.3 5.6 0.2 53 3.7 W 9 13 5 7 1022.2 1022.3 0.0
27/02:00am 10.5 4.9 0.0 48 4.2 W 19 26 10 14 1021.9 1022.0 0.0
27/01:30am 10.5 6.1 0.3 49 4.2 WNW 13 24 7 13 1022.2 1022.3 0.0
27/01:00am 11.1 6.4 1.1 50 4.2 W 15 26 8 14 1021.8 1021.9 0.0
27/12:30am 11.1 6.4 3.2 58 3.5 WSW 17 30 9 16 1021.3 1021.4 0.0
27/12:00am 10.6 7.3 4.3 65 2.8 SW 11 15 6 8 1021.0 1021.1 0.0
 
Date/Time
EST
Temp
°C
App
Temp
°C
Dew
Point
Rel
Hum
%
Delta-T
°C
Wind Press
QNH
hPa
Press
MSL
hPa
Rain
since 9 am
mm
Dir
 
Spd
km/h
Gust
km/h
Spd
kts
Gust
kts
26/11:30pm 12.1 8.1 4.8 61 3.3 SW 15 22 8 12 1020.8 1020.9 0.0
26/11:00pm 13.8 8.9 3.9 51 4.5 W 19 28 10 15 1020.1 1020.2 0.0
26/10:30pm 14.0 9.1 4.3 52 4.5 W 19 32 10 17 1019.7 1019.8 0.0
26/10:00pm 13.4 10.0 5.8 60 3.6 WNW 13 19 7 10 1019.2 1019.3 0.0
26/09:30pm 14.2 10.1 6.3 59 3.8 NW 17 28 9 15 1018.8 1018.9 0.0
26/09:00pm 13.7 9.9 5.8 59 3.7 NW 15 20 8 11 1018.3 1018.4 0.0
26/08:30pm 14.2 10.4 5.8 57 4.0 WNW 15 26 8 14 1018.3 1018.4 0.0
26/08:00pm 13.9 10.8 5.5 57 4.0 NNW 11 19 6 10 1017.8 1017.9 0.0
26/07:30pm 14.7 12.0 5.8 55 4.3 NNW 9 13 5 7 1017.5 1017.6 0.0
26/07:00pm 14.6 11.9 5.4 54 4.4 NNW 9 19 5 10 1017.0 1017.1 0.0
26/06:30pm 15.1 12.6 4.8 50 4.8 NNW 7 11 4 6 1016.2 1016.3 0.0
26/06:00pm 15.7 12.4 4.7 48 5.2 NW 11 19 6 10 1015.9 1016.0 0.0
26/05:30pm 16.7 11.9 4.4 44 5.8 NW 19 32 10 17 1015.5 1015.6 0.0
26/05:00pm 17.2 12.4 4.5 43 6.0 NW 19 30 10 16 1015.6 1015.7 0.0
26/04:30pm 18.2 13.2 4.7 41 6.5 WNW 20 37 11 20 1015.2 1015.3 0.0
26/04:00pm 18.7 13.7 4.8 40 6.7 NW 20 35 11 19 1014.7 1014.8 0.0
26/03:43pm 18.8 12.3 4.9 40 6.7 WNW 28 46 15 25 1014.6 1014.7 0.0
26/03:30pm 19.0 13.6 4.7 39 6.9 WNW 22 39 12 21 1014.5 1014.6 0.0
26/03:00pm 19.1 12.9 4.5 38 7.0 NW 26 37 14 20 1014.5 1014.6 0.0

Other Formats:

Comma delimited format used in spreadsheet applications
http://www.bom.gov.au/fwo/IDN60801/IDN60801.95771.axf

JavaScript Object Notation format (JSON) in row-major order
http://www.bom.gov.au/fwo/IDN60801/IDN60801.95771.json